メインページ
METAR-TAF:

METAR-TAF

空港 :

ポンタ・デルガダ, !acores!, ポルトガル

ポンタ・デルガダ空港

緯度: 37-44N, 経度: 025-42W, 海抜: 71m

現時点の気象観測

当レポートは41分前の23:00(UTC)に作成
東/南東の風 10kt
気温 17°C
湿度 88%
気圧 1017 hPa
視程10km以上
高度1500ftの雲はほとんどない
高度2800ftの千切れ雲あり

METAR: LPPD 232300Z 11010KT 9999 FEW015 BKN028 17/15 Q1017

時間: 23:41 (23:41 UTC)

予報

当レポートは6時間41分前の17:00(UTC)に作成
予報は23日の 18時(UTC)から 24日の 18時(UTC)まで有効
東/南東の風 12kt
視程10km以上
高度1800ftの雲は散在している
23日の 18時(UTC)から 23日の 24時(UTC)まで一時的に
高度1500ftの雲はほとんどない
高度3000ftの千切れ雲あり
24日の 00時(UTC)から 24日の 02時(UTC)まで徐々に
高度800ftの雲は散在している
高度2000ftの千切れ雲あり
24日の 02時(UTC)から 24日の 18時(UTC)まで一時的に
視程: 3000m
高度400ftの雲は散在している
高度800ftの千切れ雲あり
小雨, 霧雨, 靄
確率 30% :
24日の 02時(UTC)から 24日の 18時(UTC)まで一時的に
視程: 1500m
高度200ftの雲は散在している
高度400ftの千切れ雲あり
霧雨, 雨, 靄

TAF: LPPD 231700Z 2318/2418 12012KT 9999 SCT018 TEMPO 2318/2324 FEW015 BKN030 BECMG 2400/2402 SCT008 BKN020 TEMPO 2402/2418 3000 -RADZ BR SCT004 BKN008 PROB30 TEMPO 2402/2418 1500 DZRA BR SCT002 BKN004

4,000以上の空港の気象観測と天気予報(METAR報とTAF報)

利用可能な観測所は地図上に黄色い丸と赤い丸で示す。

丸の上にカーソルを重ねると観測所名を参照できる。

次にクリックすると気象観測と天気予報を参照できる。

マップの切り替え:黒色「×」印の緑ボタンをクリックして拡大、「-」印の緑ボタンをクリックして縮小、緑色の三角印をクリックして隣りの地図に切り替え


METAR-TAF: